createdAt,value
2023-04-01T00:01:21.763Z,63.14
2023-04-01T00:04:10.947Z,63.13
2023-04-01T00:06:59.560Z,63.44
2023-04-01T00:09:48.774Z,63.32
2023-04-01T00:12:39.774Z,63.34
2023-04-01T00:15:28.322Z,63.26
2023-04-01T00:18:17.916Z,63.54
2023-04-01T00:21:07.606Z,63.42
2023-04-01T00:23:56.890Z,63.52
2023-04-01T00:26:45.574Z,63.55
2023-04-01T00:29:36.758Z,63.55
2023-04-01T00:32:26.232Z,63.68
2023-04-01T00:35:15.596Z,63.68
2023-04-01T00:38:04.845Z,63.86
2023-04-01T00:41:00.517Z,63.89
2023-04-01T00:43:50.981Z,63.77
2023-04-01T00:46:41.780Z,63.77
2023-04-01T00:49:34.671Z,63.80
2023-04-01T00:52:27.938Z,63.91
2023-04-01T00:55:18.749Z,63.94
2023-04-01T00:58:11.380Z,64.07
2023-04-01T01:01:01.851Z,64.00
2023-04-01T01:03:52.688Z,64.16
2023-04-01T01:06:48.782Z,64.15
2023-04-01T01:09:47.350Z,63.89
2023-04-01T01:12:42.752Z,64.29
2023-04-01T01:15:34.950Z,64.48
2023-04-01T01:18:35.423Z,64.51
2023-04-01T01:21:50.020Z,64.52
2023-04-01T01:24:54.237Z,64.54
2023-04-01T01:27:47.385Z,64.76
2023-04-01T01:30:46.138Z,64.80
2023-04-01T01:33:56.593Z,65.12
2023-04-01T01:36:53.552Z,65.23
2023-04-01T01:39:44.916Z,65.28
2023-04-01T01:42:37.792Z,65.46
2023-04-01T01:45:28.910Z,65.61
2023-04-01T01:48:19.219Z,65.75
2023-04-01T01:51:10.104Z,65.71
2023-04-01T01:54:00.041Z,65.65
2023-04-01T01:56:52.982Z,65.82
2023-04-01T01:59:44.572Z,65.86
2023-04-01T02:02:38.302Z,65.52
2023-04-01T02:05:32.945Z,65.64
2023-04-01T02:08:32.713Z,65.63
2023-04-01T02:11:32.916Z,65.73
2023-04-01T02:14:26.085Z,65.58
2023-04-01T02:17:19.396Z,65.86
2023-04-01T02:20:13.424Z,65.96
2023-04-01T02:23:02.325Z,65.81
2023-04-01T02:30:21.437Z,65.77
2023-04-01T02:33:10.862Z,65.96
2023-04-01T02:36:00.430Z,65.89
2023-04-01T02:38:52.581Z,65.68
2023-04-01T02:41:41.903Z,65.83
2023-04-01T02:44:31.511Z,65.75
2023-04-01T02:47:21.985Z,65.84
2023-04-01T02:50:12.109Z,65.75
2023-04-01T02:53:00.775Z,65.72
2023-04-01T02:55:51.828Z,65.85
2023-04-01T02:58:40.852Z,65.88
2023-04-01T03:01:29.611Z,66.01
2023-04-01T03:04:20.443Z,65.88
2023-04-01T03:07:09.510Z,66.03
2023-04-01T03:09:58.129Z,66.27
2023-04-01T03:12:48.358Z,66.10
2023-04-01T03:15:37.394Z,65.78
2023-04-01T03:18:26.632Z,65.98
2023-04-01T03:21:20.094Z,65.93
2023-04-01T03:24:09.542Z,66.12
2023-04-01T03:26:58.647Z,65.77
2023-04-01T03:29:47.621Z,65.86
2023-04-01T03:32:37.278Z,66.14
2023-04-01T03:35:25.877Z,66.12
2023-04-01T03:38:17.035Z,66.09
2023-04-01T03:41:06.090Z,65.89
2023-04-01T03:43:55.664Z,65.85
2023-04-01T03:46:45.261Z,65.89
2023-04-01T03:49:35.296Z,65.91
2023-04-01T03:52:24.864Z,66.09
2023-04-01T03:55:14.969Z,66.00
2023-04-01T03:58:05.540Z,66.14
2023-04-01T04:00:54.114Z,66.04
2023-04-01T04:03:43.895Z,66.20
2023-04-01T04:06:32.811Z,65.88
2023-04-01T04:09:22.360Z,66.28
2023-04-01T04:12:12.319Z,66.19
2023-04-01T04:15:01.898Z,66.02
2023-04-01T04:17:50.634Z,66.21
2023-04-01T04:20:47.155Z,66.13
2023-04-01T04:23:36.923Z,65.95
2023-04-01T04:26:27.014Z,66.23
2023-04-01T04:29:23.751Z,66.21
2023-04-01T04:32:13.515Z,66.29
2023-04-01T04:35:02.618Z,65.97
2023-04-01T04:37:51.708Z,66.15
2023-04-01T04:40:42.153Z,66.22
2023-04-01T04:43:31.575Z,66.19
2023-04-01T04:46:24.702Z,66.25
2023-04-01T04:49:19.880Z,66.22
2023-04-01T04:52:08.751Z,66.15
2023-04-01T04:54:57.764Z,66.13
2023-04-01T04:57:46.473Z,66.22
2023-04-01T05:00:35.093Z,66.11
2023-04-01T05:03:28.536Z,66.08
2023-04-01T05:06:20.113Z,66.19
2023-04-01T05:09:10.393Z,66.52
2023-04-01T05:11:59.027Z,66.44
2023-04-01T05:14:49.430Z,66.50
2023-04-01T05:17:38.940Z,66.46
2023-04-01T05:20:29.118Z,66.58
2023-04-01T05:23:18.417Z,66.30
2023-04-01T05:26:08.210Z,66.47
2023-04-01T05:28:57.335Z,66.50
2023-04-01T05:31:45.958Z,66.60
2023-04-01T05:34:35.546Z,66.37
2023-04-01T05:37:25.578Z,66.57
2023-04-01T05:40:14.651Z,66.54
2023-04-01T05:43:03.322Z,66.62
2023-04-01T05:45:52.153Z,66.65
2023-04-01T05:49:10.439Z,66.60
2023-04-01T05:51:59.852Z,66.63
2023-04-01T05:54:50.807Z,66.46
2023-04-01T05:57:40.048Z,66.66
2023-04-01T06:00:28.870Z,66.70
2023-04-01T06:03:19.986Z,66.45
2023-04-01T06:14:57.535Z,66.69
2023-04-01T06:17:59.250Z,66.41
2023-04-01T06:20:57.678Z,66.62
2023-04-01T06:24:01.376Z,66.61
2023-04-01T06:27:04.273Z,66.42
2023-04-01T06:30:03.474Z,66.56
2023-04-01T06:33:21.041Z,66.65
2023-04-01T06:36:37.942Z,66.34
2023-04-01T06:39:45.091Z,66.22
2023-04-01T06:43:02.012Z,66.02
2023-04-01T06:46:19.126Z,66.06
2023-04-01T06:49:43.782Z,65.77
2023-04-01T06:57:33.163Z,65.57
2023-04-01T07:00:31.080Z,65.41
2023-04-01T07:03:23.990Z,65.30
2023-04-01T07:06:18.591Z,65.35
2023-04-01T07:09:18.325Z,64.90
2023-04-01T07:12:43.307Z,64.67
2023-04-01T07:15:41.123Z,64.53
2023-04-01T07:18:38.036Z,64.65
2023-04-01T07:21:32.112Z,64.33
2023-04-01T07:24:27.980Z,64.30
2023-04-01T07:27:25.870Z,63.96
2023-04-01T07:30:19.750Z,63.96
2023-04-01T07:33:17.093Z,64.09
2023-04-01T07:36:15.516Z,63.82
2023-04-01T07:39:16.082Z,64.05
2023-04-01T07:42:31.537Z,64.32
2023-04-01T07:45:26.534Z,64.62
2023-04-01T07:48:27.489Z,65.08
2023-04-01T07:51:23.687Z,65.39
2023-04-01T07:54:19.420Z,65.47
2023-04-01T07:57:17.782Z,65.95
2023-04-01T08:00:22.309Z,65.85
2023-04-01T08:03:39.940Z,65.60
2023-04-01T08:06:38.794Z,65.31
2023-04-01T08:09:41.078Z,65.27
2023-04-01T08:13:08.750Z,64.31
2023-04-01T08:16:26.525Z,64.08
2023-04-01T08:19:30.267Z,63.28
2023-04-01T08:22:27.838Z,62.97
2023-04-01T08:25:22.440Z,62.19
2023-04-01T08:28:22.621Z,61.67
2023-04-01T08:31:15.045Z,60.90
2023-04-01T08:34:16.105Z,60.80
2023-04-01T08:37:10.500Z,59.99
2023-04-01T08:40:03.674Z,59.70
2023-04-01T08:43:08.356Z,59.58
2023-04-01T08:46:18.428Z,58.87
2023-04-01T08:49:28.629Z,58.52
2023-04-01T08:52:30.889Z,58.48
2023-04-01T08:55:49.103Z,57.73
2023-04-01T08:59:13.717Z,56.96
2023-04-01T09:02:29.488Z,56.72
2023-04-01T09:05:47.333Z,56.98
2023-04-01T09:08:54.121Z,56.78
2023-04-01T09:12:10.506Z,56.45
2023-04-01T09:15:22.624Z,56.19
2023-04-01T09:18:23.161Z,56.08
2023-04-01T09:21:38.835Z,55.78
2023-04-01T09:25:03.940Z,56.01
2023-04-01T09:27:59.427Z,55.79
2023-04-01T09:31:11.235Z,55.43
2023-04-01T09:34:27.298Z,55.17
2023-04-01T09:37:33.012Z,54.98
2023-04-01T09:40:36.480Z,54.43
2023-04-01T09:43:51.053Z,54.44
2023-04-01T09:46:57.874Z,54.23
2023-04-01T09:50:01.410Z,54.41
2023-04-01T09:53:06.527Z,54.11
2023-04-01T09:56:26.656Z,54.14
2023-04-01T09:59:49.264Z,54.18
2023-04-01T10:03:19.046Z,54.03
2023-04-01T10:06:40.979Z,54.12
2023-04-01T10:10:22.823Z,54.31
2023-04-01T10:13:49.054Z,54.11
2023-04-01T10:17:27.877Z,54.68
2023-04-01T10:20:37.030Z,54.51
2023-04-01T10:23:59.450Z,54.41
2023-04-01T10:27:06.205Z,54.26
2023-04-01T10:30:41.753Z,54.65
2023-04-01T10:34:20.857Z,54.24
2023-04-01T10:37:26.338Z,54.51
2023-04-01T10:40:46.904Z,54.22
2023-04-01T10:44:11.863Z,54.21
2023-04-01T10:47:29.624Z,54.58
2023-04-01T10:50:53.597Z,54.90
2023-04-01T10:53:51.594Z,54.49
2023-04-01T10:56:52.570Z,55.02
2023-04-01T11:00:16.407Z,55.32
2023-04-01T11:03:56.184Z,55.85
2023-04-01T11:07:34.086Z,56.18
2023-04-01T11:10:51.210Z,56.40
2023-04-01T11:14:08.916Z,56.67
2023-04-01T11:17:38.665Z,56.65
2023-04-01T11:21:09.650Z,56.57
2023-04-01T11:24:23.933Z,56.12
2023-04-01T11:27:43.983Z,55.93
2023-04-01T11:30:49.656Z,56.36
2023-04-01T11:33:45.165Z,56.42
2023-04-01T11:36:47.601Z,56.71
2023-04-01T11:39:52.819Z,57.26
2023-04-01T11:43:09.347Z,57.61
2023-04-01T11:46:24.619Z,58.34
2023-04-01T11:49:32.064Z,58.86
2023-04-01T11:53:14.699Z,58.63
2023-04-01T11:56:19.484Z,59.24
2023-04-01T11:59:51.236Z,59.53
2023-04-01T12:02:50.729Z,59.91
2023-04-01T12:05:48.914Z,60.18
2023-04-01T12:08:48.474Z,60.70
2023-04-01T12:11:48.201Z,61.02
2023-04-01T12:14:44.303Z,61.77
2023-04-01T12:17:43.715Z,62.85
2023-04-01T12:20:41.464Z,62.78
2023-04-01T12:23:58.875Z,63.17
2023-04-01T12:27:03.709Z,63.84
2023-04-01T12:30:31.505Z,64.37
2023-04-01T12:33:45.001Z,64.79
2023-04-01T12:36:45.176Z,65.27
2023-04-01T12:39:53.805Z,65.39
2023-04-01T12:42:59.035Z,65.62
2023-04-01T12:45:56.727Z,66.11
2023-04-01T12:49:09.770Z,66.21
2023-04-01T12:52:09.019Z,66.46
2023-04-01T12:55:37.202Z,67.06
2023-04-01T12:58:58.604Z,67.37
2023-04-01T13:02:04.089Z,67.90
2023-04-01T13:05:18.219Z,67.79
2023-04-01T13:08:32.294Z,68.11
2023-04-01T13:11:34.674Z,68.18
2023-04-01T13:14:46.791Z,68.81
2023-04-01T13:17:45.220Z,68.97
2023-04-01T13:20:47.695Z,68.99
2023-04-01T13:23:51.565Z,69.32
2023-04-01T13:26:54.256Z,69.67
2023-04-01T13:29:46.850Z,69.93
2023-04-01T13:32:44.113Z,70.00
2023-04-01T13:35:41.315Z,70.39
2023-04-01T13:38:54.379Z,70.40
2023-04-01T13:42:09.734Z,70.75
2023-04-01T13:45:04.601Z,70.78
2023-04-01T13:48:17.491Z,70.84
2023-04-01T13:51:23.767Z,70.83
2023-04-01T13:54:43.724Z,70.91
2023-04-01T13:57:53.679Z,70.81
2023-04-01T14:00:54.522Z,71.03
2023-04-01T14:04:07.414Z,71.08
2023-04-01T14:07:06.747Z,71.21
2023-04-01T14:10:08.529Z,71.61
2023-04-01T14:13:06.929Z,71.45
2023-04-01T14:16:07.714Z,71.66
2023-04-01T14:19:10.428Z,71.27
2023-04-01T14:22:12.717Z,71.33
2023-04-01T14:25:25.240Z,71.16
2023-04-01T14:28:27.738Z,71.49
2023-04-01T14:31:54.335Z,71.11
2023-04-01T14:34:59.254Z,71.35
2023-04-01T14:38:16.580Z,71.25
2023-04-01T14:41:19.426Z,70.94
2023-04-01T14:44:26.372Z,70.65
2023-04-01T14:47:38.873Z,70.54
2023-04-01T14:50:31.784Z,70.44
2023-04-01T14:53:29.526Z,70.65
2023-04-01T14:56:38.149Z,70.19
2023-04-01T14:59:31.318Z,70.46
2023-04-01T15:02:45.274Z,70.14
2023-04-01T15:05:48.624Z,70.33
2023-04-01T15:08:47.675Z,70.00
2023-04-01T15:11:49.036Z,70.08
2023-04-01T15:14:59.249Z,69.67
2023-04-01T15:18:01.140Z,69.90
2023-04-01T15:21:27.436Z,70.18
2023-04-01T15:24:23.445Z,69.90
2023-04-01T15:27:30.281Z,69.76
2023-04-01T15:30:41.640Z,69.66
2023-04-01T15:33:51.951Z,69.31
2023-04-01T15:36:46.851Z,69.13
2023-04-01T15:39:51.737Z,69.29
2023-04-01T15:42:56.130Z,68.82
2023-04-01T15:45:58.590Z,68.88
2023-04-01T15:48:59.569Z,68.49
2023-04-01T15:52:00.566Z,68.63
2023-04-01T15:55:12.773Z,68.79
2023-04-01T15:58:25.073Z,68.35
2023-04-01T16:01:27.969Z,68.28
2023-04-01T16:04:39.184Z,68.16
2023-04-01T16:07:50.323Z,68.45
2023-04-01T16:10:59.471Z,68.44
2023-04-01T16:14:02.224Z,68.54
2023-04-01T16:17:06.759Z,68.48
2023-04-01T16:20:00.383Z,68.42
2023-04-01T16:22:57.079Z,68.47
2023-04-01T16:25:51.456Z,68.43
2023-04-01T16:28:48.042Z,68.58
2023-04-01T16:31:44.960Z,68.69
2023-04-01T16:34:43.805Z,68.55
2023-04-01T16:37:40.661Z,68.50
2023-04-01T16:40:43.450Z,69.04
2023-04-01T16:43:40.649Z,68.78
2023-04-01T16:46:42.507Z,68.38
2023-04-01T16:49:38.547Z,68.25
2023-04-01T16:52:55.872Z,68.13
2023-04-01T16:55:52.052Z,68.02
2023-04-01T16:58:46.445Z,67.92
2023-04-01T17:01:45.370Z,67.95
2023-04-01T17:04:43.414Z,67.77
2023-04-01T17:07:43.530Z,67.58
2023-04-01T17:10:46.429Z,67.92
2023-04-01T17:13:46.445Z,67.68
2023-04-01T17:17:06.825Z,67.40
2023-04-01T17:20:14.046Z,67.66
2023-04-01T17:23:06.283Z,67.36
2023-04-01T17:26:07.347Z,67.53
2023-04-01T17:29:04.379Z,67.16
2023-04-01T17:32:04.501Z,67.24
2023-04-01T17:35:06.002Z,67.01
2023-04-01T17:38:05.990Z,66.82
2023-04-01T17:41:07.025Z,66.62
2023-04-01T17:44:05.036Z,66.71
2023-04-01T17:47:15.749Z,66.48
2023-04-01T17:50:17.930Z,66.55
2023-04-01T17:53:19.438Z,66.18
2023-04-01T17:56:20.889Z,66.33
2023-04-01T17:59:23.121Z,66.11
2023-04-01T18:02:25.280Z,66.53
2023-04-01T18:05:38.587Z,66.21
2023-04-01T18:08:43.007Z,66.53
2023-04-01T18:11:45.115Z,66.66
2023-04-01T18:14:52.553Z,66.49
2023-04-01T18:17:57.106Z,66.68
2023-04-01T18:20:56.946Z,66.82
2023-04-01T18:24:01.632Z,67.14
2023-04-01T18:27:02.486Z,67.00
2023-04-01T18:29:55.798Z,67.12
2023-04-01T18:32:51.575Z,67.19
2023-04-01T18:35:54.601Z,67.52
2023-04-01T18:38:51.223Z,67.22
2023-04-01T18:41:53.669Z,67.64
2023-04-01T18:44:48.821Z,67.45
2023-04-01T18:47:47.068Z,67.64
2023-04-01T18:50:40.859Z,67.95
2023-04-01T18:53:40.920Z,67.93
2023-04-01T18:56:34.348Z,67.97
2023-04-01T18:59:31.214Z,68.32
2023-04-01T19:02:31.262Z,68.43
2023-04-01T19:05:24.797Z,68.14
2023-04-01T19:08:27.165Z,68.37
2023-04-01T19:11:26.368Z,68.23
2023-04-01T19:14:22.320Z,68.05
2023-04-01T19:17:19.779Z,68.38
2023-04-01T19:20:20.069Z,68.22
2023-04-01T19:23:52.306Z,68.13
2023-04-01T19:26:48.604Z,68.15
2023-04-01T19:29:54.980Z,67.92
2023-04-01T19:32:54.177Z,68.02
2023-04-01T19:35:49.572Z,67.85
2023-04-01T19:38:40.625Z,67.92
2023-04-01T19:41:39.250Z,67.74
2023-04-01T19:44:38.424Z,68.16
2023-04-01T19:47:44.884Z,68.07
2023-04-01T19:50:40.947Z,67.99
2023-04-01T19:53:38.056Z,68.05
2023-04-01T19:56:38.740Z,67.64
2023-04-01T19:59:37.941Z,68.06
2023-04-01T20:02:53.165Z,68.06
2023-04-01T20:05:53.327Z,67.74
2023-04-01T20:08:47.828Z,68.24
2023-04-01T20:11:57.877Z,67.74
2023-04-01T20:14:52.707Z,68.03
2023-04-01T20:17:47.221Z,67.72
2023-04-01T20:20:37.782Z,67.84
2023-04-01T20:23:41.118Z,68.08
2023-04-01T20:26:36.668Z,67.99
2023-04-01T20:29:44.287Z,67.89
2023-04-01T20:32:59.518Z,68.04
2023-04-01T20:36:03.898Z,67.74
2023-04-01T20:39:17.599Z,67.77
2023-04-01T20:42:29.132Z,67.80
2023-04-01T20:45:35.056Z,67.83
2023-04-01T20:48:43.267Z,68.13
2023-04-01T20:51:36.862Z,68.18
2023-04-01T20:54:44.053Z,68.02
2023-04-01T20:57:40.513Z,68.11
2023-04-01T21:00:40.731Z,68.26
2023-04-01T21:03:45.436Z,68.03
2023-04-01T21:06:47.182Z,68.39
2023-04-01T21:09:50.209Z,68.35
2023-04-01T21:12:48.393Z,68.18
2023-04-01T21:15:50.516Z,68.40
2023-04-01T21:18:59.917Z,68.53
2023-04-01T21:22:30.498Z,68.60
2023-04-01T21:25:42.433Z,68.47
2023-04-01T21:28:38.362Z,68.51
2023-04-01T21:31:43.276Z,68.81
2023-04-01T21:34:45.812Z,68.88
2023-04-01T21:37:47.865Z,68.94
2023-04-01T21:41:06.506Z,69.33
2023-04-01T21:44:31.754Z,69.40
2023-04-01T21:47:58.390Z,69.18
2023-04-01T21:51:04.410Z,69.24
2023-04-01T21:54:28.529Z,69.08
2023-04-01T21:58:01.722Z,69.09
2023-04-01T22:01:00.535Z,69.27
2023-04-01T22:04:04.903Z,69.08
2023-04-01T22:07:01.236Z,69.21
2023-04-01T22:10:01.808Z,69.30
2023-04-01T22:12:56.916Z,69.04
2023-04-01T22:15:58.418Z,69.30
2023-04-01T22:18:52.490Z,69.10
2023-04-01T22:21:53.410Z,69.12
2023-04-01T22:24:52.702Z,69.06
2023-04-01T22:27:48.881Z,68.75
2023-04-01T22:30:45.473Z,68.98
2023-04-01T22:33:40.465Z,69.04
2023-04-01T22:36:36.081Z,68.59
2023-04-01T22:40:02.080Z,68.69
2023-04-01T22:42:58.892Z,68.58
2023-04-01T22:46:01.929Z,68.74
2023-04-01T22:48:59.367Z,68.80
2023-04-01T22:51:53.252Z,68.32
2023-04-01T22:54:46.053Z,68.75
2023-04-01T22:57:50.796Z,68.55
2023-04-01T23:00:45.629Z,68.55
2023-04-01T23:03:36.814Z,68.71
2023-04-01T23:06:29.775Z,68.44
2023-04-01T23:09:22.275Z,68.60
2023-04-01T23:12:13.085Z,68.57
2023-04-01T23:15:04.925Z,68.34
2023-04-01T23:18:07.040Z,68.52
2023-04-01T23:21:05.659Z,68.40
2023-04-01T23:24:05.302Z,68.43
2023-04-01T23:26:59.500Z,68.24
2023-04-01T23:29:48.376Z,68.32
2023-04-01T23:32:39.213Z,68.36
2023-04-01T23:35:27.927Z,68.25
2023-04-01T23:38:18.677Z,68.51
2023-04-01T23:41:08.611Z,68.34
2023-04-01T23:44:04.040Z,68.43
2023-04-01T23:46:54.314Z,68.26
2023-04-01T23:49:50.586Z,68.34
2023-04-01T23:52:45.308Z,68.49
2023-04-01T23:55:36.677Z,68.57
2023-04-01T23:58:28.270Z,68.43
